Date,TemperatureHighF,TemperatureAvgF,TemperatureLowF,DewpointHighF,DewpointAvgF,DewpointLowF,HumidityHigh,HumidityAvg,HumidityLow,PressureMaxIn,PressureMinIn,WindSpeedMaxMPH,WindSpeedAvgMPH,GustSpeedMaxMPH,PrecipitationSumIn
2013-1-1,45.9,42.1,39.0,39.4,32.7,24.4,89,70,50,30.03,29.88,0,0,4,0.12
2013-1-2,44.6,37.3,31.8,36.0,26.4,17.8,92,67,39,30.21,29.97,1,0,6,0.12
2013-1-3,37.9,31.7,25.9,19.2,16.0,13.6,74,53,38,30.24,30.15,0,0,0,0.00
2013-1-4,47.7,34.0,24.4,29.8,19.8,16.3,89,59,31,30.24,30.09,0,0,4,0.00
2013-1-5,48.0,35.7,25.7,27.5,19.3,15.4,69,53,31,30.36,30.18,0,0,5,0.00
2013-1-6,53.2,41.5,34.7,37.6,28.8,23.2,89,63,34,30.24,30.03,0,0,5,0.00
2013-1-7,51.3,39.4,29.1,32.4,22.7,17.6,83,54,29,30.44,30.12,1,0,9,0.00
2013-1-8,53.6,40.6,28.8,36.7,27.5,21.7,89,63,35,30.44,30.36,0,0,3,0.00
2013-1-9,65.1,50.0,37.0,47.7,38.0,29.8,89,65,40,30.39,30.24,0,0,3,0.00
2013-1-10,58.3,46.0,36.7,46.0,26.8,20.3,92,52,25,30.56,30.36,3,1,9,0.00
2013-1-11,50.9,44.3,33.3,50.0,38.8,24.4,98,82,60,30.50,30.09,0,0,5,0.00
2013-1-12,50.5,48.6,46.0,50.0,48.1,45.5,98,98,98,30.15,30.09,0,0,0,0.00
2013-1-13,58.6,51.3,45.5,58.1,50.8,45.0,98,98,98,30.12,30.00,0,0,4,0.00
2013-1-14,63.0,56.4,45.5,62.4,55.8,44.2,98,98,95,30.21,30.00,0,0,6,0.32
2013-1-15,45.5,42.3,40.3,44.2,41.4,38.8,98,97,88,30.27,30.09,1,0,8,0.72
2013-1-16,46.2,41.5,37.4,45.7,40.9,36.9,98,98,98,30.09,29.88,1,0,6,0.44
2013-1-17,45.1,40.8,32.9,44.6,40.1,32.0,98,97,95,30.12,29.97,2,0,8,1.04
2013-1-18,41.5,33.9,27.9,32.9,22.5,12.4,98,67,32,30.50,30.09,2,0,9,0.24
2013-1-19,54.9,38.8,27.9,26.1,22.6,19.9,81,55,29,30.47,30.06,2,0,6,0.00
2013-1-20,61.9,45.6,35.6,31.6,24.2,10.8,64,44,28,30.06,29.85,2,0,6,0.00
2013-1-21,51.4,38.2,27.3,33.3,19.2,8.1,75,47,34,30.09,29.76,4,1,13,0.00
2013-1-22,33.3,26.1,17.8,13.5,2.2,-4.5,55,36,23,30.27,29.91,4,1,15,0.00
2013-1-23,32.7,22.9,11.8,7.3,0.3,-6.2,47,37,25,30.36,30.12,2,0,10,0.00
2013-1-24,28.6,23.5,15.6,17.8,6.5,-4.5,78,50,32,30.50,29.97,4,1,13,0.00
2013-1-25,28.4,21.5,13.6,18.3,6.0,-3.6,77,53,32,30.50,30.06,1,0,5,0.00
2013-1-26,39.7,28.6,18.5,22.5,14.9,10.0,81,58,37,30.41,30.06,2,0,8,0.08
2013-1-27,40.6,31.1,24.6,19.6,14.8,11.8,69,52,33,30.59,30.41,3,0,7,0.00
2013-1-28,49.8,39.2,28.9,39.7,28.9,17.4,91,67,47,30.50,30.09,2,0,7,0.16
2013-1-29,70.2,53.1,42.4,48.2,41.9,36.9,94,70,34,30.12,30.03,3,1,6,0.00
2013-1-30,74.1,64.6,52.2,58.8,51.4,47.8,95,66,40,30.03,29.38,5,2,17,0.00
2013-1-31,69.1,48.9,29.7,57.4,28.0,10.8,95,48,27,29.94,29.20,5,2,17,0.40